createdAt,value
2017-12-19T00:02:13.262Z,1.50
2017-12-19T00:04:40.221Z,1.50
2017-12-19T00:07:07.203Z,1.60
2017-12-19T00:09:34.161Z,1.60
2017-12-19T00:12:01.901Z,1.60
2017-12-19T00:14:28.869Z,1.60
2017-12-19T00:16:56.613Z,1.40
2017-12-19T00:19:23.568Z,1.40
2017-12-19T00:21:51.312Z,1.50
2017-12-19T00:24:18.280Z,1.50
2017-12-19T00:26:46.008Z,1.70
2017-12-19T00:29:12.968Z,1.60
2017-12-19T00:31:39.974Z,1.60
2017-12-19T00:34:09.806Z,1.60
2017-12-19T00:36:36.793Z,1.60
2017-12-19T00:39:04.528Z,1.60
2017-12-19T00:41:31.486Z,1.60
2017-12-19T00:43:58.453Z,1.60
2017-12-19T00:46:26.185Z,1.60
2017-12-19T00:48:53.149Z,1.60
2017-12-19T00:51:20.896Z,1.50
2017-12-19T00:53:47.866Z,1.50
2017-12-19T00:56:15.597Z,1.30
2017-12-19T00:58:42.572Z,1.30
2017-12-19T01:01:10.333Z,1.20
2017-12-19T01:03:38.073Z,1.30
2017-12-19T01:06:05.036Z,1.30
2017-12-19T01:08:32.005Z,1.40
2017-12-19T01:10:58.965Z,1.50
2017-12-19T01:13:25.941Z,1.50
2017-12-19T01:15:52.898Z,1.60
2017-12-19T01:18:19.862Z,1.60
2017-12-19T01:20:46.829Z,1.60
2017-12-19T01:23:14.556Z,1.70
2017-12-19T01:25:41.525Z,1.60
2017-12-19T01:28:09.252Z,1.60
2017-12-19T01:30:36.220Z,1.60
2017-12-19T01:33:03.184Z,1.50
2017-12-19T01:35:30.912Z,1.20
2017-12-19T01:37:58.992Z,1.20
2017-12-19T01:40:26.733Z,1.30
2017-12-19T01:42:53.697Z,1.30
2017-12-19T01:45:20.707Z,1.40
2017-12-19T01:47:47.673Z,1.40
2017-12-19T01:50:14.645Z,1.40
2017-12-19T01:52:41.613Z,1.50
2017-12-19T01:55:09.350Z,1.30
2017-12-19T01:57:36.317Z,1.30
2017-12-19T02:00:04.040Z,1.20
2017-12-19T02:02:31.008Z,1.20
2017-12-19T02:04:57.969Z,1.20
2017-12-19T02:07:25.701Z,1.40
2017-12-19T02:09:52.664Z,1.40
2017-12-19T02:12:19.632Z,1.40
2017-12-19T02:14:47.369Z,1.50
2017-12-19T02:17:14.349Z,1.50
2017-12-19T02:19:41.309Z,1.50
2017-12-19T02:22:08.277Z,1.50
2017-12-19T02:24:35.245Z,1.60
2017-12-19T02:27:02.213Z,1.60
2017-12-19T02:29:29.953Z,1.60
2017-12-19T02:31:56.912Z,1.60
2017-12-19T02:34:23.881Z,1.60
2017-12-19T02:36:50.845Z,1.60
2017-12-19T02:39:17.820Z,1.60
2017-12-19T02:41:44.789Z,1.60
2017-12-19T02:44:11.753Z,1.60
2017-12-19T02:46:39.477Z,1.60
2017-12-19T02:49:06.444Z,1.50
2017-12-19T02:51:33.408Z,1.70
2017-12-19T02:54:01.148Z,1.80
2017-12-19T02:56:28.105Z,1.80
2017-12-19T02:58:55.064Z,1.70
2017-12-19T03:01:22.810Z,1.90
2017-12-19T03:03:49.792Z,1.90
2017-12-19T03:06:16.758Z,1.90
2017-12-19T03:08:43.717Z,1.70
2017-12-19T03:11:10.681Z,1.60
2017-12-19T03:13:37.696Z,1.50
2017-12-19T03:16:05.569Z,1.40
2017-12-19T03:18:32.532Z,1.50
2017-12-19T03:20:59.504Z,1.50
2017-12-19T03:23:26.460Z,1.40
2017-12-19T03:25:54.200Z,1.40
2017-12-19T03:28:21.168Z,1.40
2017-12-19T03:30:48.902Z,1.00
2017-12-19T03:33:15.864Z,1.00
2017-12-19T03:35:43.605Z,0.80
2017-12-19T03:38:10.624Z,0.80
2017-12-19T03:40:37.588Z,0.80
2017-12-19T03:43:04.551Z,0.80
2017-12-19T03:45:31.580Z,0.90
2017-12-19T03:47:59.257Z,1.10
2017-12-19T03:50:26.249Z,1.00
2017-12-19T03:52:53.212Z,1.10
2017-12-19T03:55:20.179Z,1.20
2017-12-19T03:57:47.153Z,1.30
2017-12-19T04:00:14.118Z,1.40
2017-12-19T04:02:41.857Z,1.60
2017-12-19T04:05:08.817Z,1.50
2017-12-19T04:07:36.560Z,1.60
2017-12-19T04:10:03.511Z,1.60
2017-12-19T04:12:30.480Z,1.60
2017-12-19T04:14:58.207Z,1.70
2017-12-19T04:17:25.172Z,1.60
2017-12-19T04:19:52.931Z,1.60
2017-12-19T04:22:19.880Z,1.60
2017-12-19T04:24:47.562Z,1.60
2017-12-19T04:27:15.333Z,1.80
2017-12-19T04:29:42.299Z,1.70
2017-12-19T04:32:09.253Z,1.80
2017-12-19T04:34:36.221Z,1.80
2017-12-19T04:37:03.180Z,1.70
2017-12-19T04:39:30.150Z,1.70
2017-12-19T04:41:57.929Z,1.70
2017-12-19T04:44:24.910Z,1.60
2017-12-19T04:46:51.868Z,1.70
2017-12-19T04:49:18.841Z,1.60
2017-12-19T04:51:46.568Z,1.70
2017-12-19T04:54:13.544Z,1.70
2017-12-19T04:56:40.504Z,1.70
2017-12-19T04:59:08.229Z,1.70
2017-12-19T05:01:35.196Z,1.70
2017-12-19T05:04:02.153Z,1.70
2017-12-19T05:06:29.889Z,1.50
2017-12-19T05:08:56.853Z,1.50
2017-12-19T05:11:23.824Z,1.60
2017-12-19T05:13:52.669Z,1.70
2017-12-19T05:16:19.641Z,1.70
2017-12-19T05:18:47.372Z,1.70
2017-12-19T05:21:14.337Z,1.60
2017-12-19T05:23:41.296Z,1.60
2017-12-19T05:26:09.040Z,1.50
2017-12-19T05:28:36.002Z,1.40
2017-12-19T05:31:03.732Z,1.50
2017-12-19T05:33:30.704Z,1.50
2017-12-19T05:35:57.680Z,1.50
2017-12-19T05:38:24.642Z,1.40
2017-12-19T05:40:51.616Z,1.50
2017-12-19T05:43:18.576Z,1.50
2017-12-19T05:45:45.541Z,1.40
2017-12-19T05:48:13.282Z,1.50
2017-12-19T05:50:40.249Z,1.50
2017-12-19T05:53:07.993Z,1.50
2017-12-19T05:55:34.962Z,1.50
2017-12-19T05:58:02.690Z,1.50
2017-12-19T06:00:29.661Z,1.50
2017-12-19T06:02:57.396Z,1.80
2017-12-19T06:05:24.369Z,1.80
2017-12-19T06:07:51.321Z,1.80
2017-12-19T06:10:19.066Z,1.90
2017-12-19T06:12:46.034Z,1.90
2017-12-19T06:15:14.208Z,2.00
2017-12-19T06:17:41.932Z,1.80
2017-12-19T06:20:08.901Z,1.80
2017-12-19T06:22:35.861Z,1.70
2017-12-19T06:25:03.633Z,1.60
2017-12-19T06:27:30.565Z,1.60
2017-12-19T06:29:58.292Z,1.60
2017-12-19T06:32:25.264Z,1.60
2017-12-19T06:34:52.234Z,1.60
2017-12-19T06:37:19.964Z,1.60
2017-12-19T06:39:46.920Z,1.60
2017-12-19T06:42:14.664Z,1.70
2017-12-19T06:44:41.625Z,1.70
2017-12-19T06:47:08.594Z,1.80
2017-12-19T06:49:35.563Z,1.80
2017-12-19T06:52:02.573Z,1.90
2017-12-19T06:54:30.301Z,1.90
2017-12-19T06:56:58.057Z,1.80
2017-12-19T06:59:25.025Z,2.00
2017-12-19T07:01:51.989Z,2.00
2017-12-19T07:04:19.742Z,2.00
2017-12-19T07:06:46.697Z,2.00
2017-12-19T07:09:14.428Z,2.00
2017-12-19T07:11:41.392Z,2.00
2017-12-19T07:14:08.367Z,1.90
2017-12-19T07:16:36.089Z,1.60
2017-12-19T07:19:03.053Z,1.60
2017-12-19T07:21:30.017Z,1.70
2017-12-19T07:23:57.754Z,1.80
2017-12-19T07:26:25.716Z,1.80
2017-12-19T07:28:52.689Z,1.90
2017-12-19T07:31:20.468Z,2.00
2017-12-19T07:33:47.437Z,2.00
2017-12-19T07:36:14.405Z,2.00
2017-12-19T07:38:41.378Z,2.00
2017-12-19T07:41:08.333Z,1.90
2017-12-19T07:43:36.117Z,2.00
2017-12-19T07:46:03.084Z,2.00
2017-12-19T07:48:30.049Z,2.10
2017-12-19T07:50:57.059Z,2.10
2017-12-19T07:53:23.980Z,2.10
2017-12-19T07:55:51.756Z,2.10
2017-12-19T07:58:19.481Z,2.20
2017-12-19T08:00:46.449Z,2.10
2017-12-19T08:03:14.183Z,2.30
2017-12-19T08:05:41.154Z,2.30
2017-12-19T08:08:08.108Z,2.20
2017-12-19T08:10:35.837Z,2.30
2017-12-19T08:13:03.573Z,2.20
2017-12-19T08:15:30.539Z,2.20
2017-12-19T08:17:57.502Z,2.20
2017-12-19T08:20:24.470Z,2.20
2017-12-19T08:22:52.202Z,2.20
2017-12-19T08:25:19.205Z,2.20
2017-12-19T08:27:47.752Z,2.40
2017-12-19T08:30:14.710Z,2.40
2017-12-19T08:32:42.450Z,2.60
2017-12-19T08:35:09.402Z,2.60
2017-12-19T08:37:36.369Z,2.50
2017-12-19T08:40:04.116Z,2.60
2017-12-19T08:42:31.081Z,2.60
2017-12-19T08:44:58.817Z,2.80
2017-12-19T08:47:25.789Z,2.70
2017-12-19T08:49:53.520Z,2.90
2017-12-19T08:52:20.490Z,2.80
2017-12-19T08:54:48.217Z,3.00
2017-12-19T08:57:15.206Z,3.00
2017-12-19T08:59:42.943Z,3.10
2017-12-19T09:02:09.904Z,3.00
2017-12-19T09:04:37.628Z,3.30
2017-12-19T09:07:04.596Z,3.20
2017-12-19T09:09:31.565Z,3.40
2017-12-19T09:11:59.329Z,3.50
2017-12-19T09:14:27.089Z,3.60
2017-12-19T09:16:54.017Z,3.50
2017-12-19T09:19:20.997Z,3.60
2017-12-19T09:21:47.953Z,3.70
2017-12-19T09:24:14.931Z,3.70
2017-12-19T09:26:41.921Z,3.60
2017-12-19T09:29:09.650Z,3.20
2017-12-19T09:31:36.609Z,3.20
2017-12-19T09:34:03.586Z,3.10
2017-12-19T09:36:30.551Z,2.80
2017-12-19T09:38:57.527Z,2.70
2017-12-19T09:41:24.490Z,2.80
2017-12-19T09:43:51.457Z,3.00
2017-12-19T09:46:19.188Z,3.40
2017-12-19T09:48:46.163Z,3.30
2017-12-19T09:51:13.889Z,3.10
2017-12-19T09:53:40.853Z,3.10
2017-12-19T09:56:07.817Z,3.30
2017-12-19T09:58:35.549Z,3.60
2017-12-19T10:01:02.508Z,3.60
2017-12-19T10:03:29.470Z,3.80
2017-12-19T10:05:57.209Z,4.20
2017-12-19T10:08:24.185Z,4.20
2017-12-19T10:10:51.917Z,4.60
2017-12-19T10:13:18.886Z,4.50
2017-12-19T10:15:46.640Z,4.60
2017-12-19T10:18:13.603Z,4.60
2017-12-19T10:20:49.144Z,4.60
2017-12-19T10:23:16.126Z,4.60
2017-12-19T10:25:43.085Z,4.60
2017-12-19T10:28:10.049Z,4.60
2017-12-19T10:30:37.016Z,4.50
2017-12-19T10:33:04.749Z,4.30
2017-12-19T10:35:31.710Z,4.30
2017-12-19T10:37:58.677Z,4.50
2017-12-19T10:40:26.416Z,4.80
2017-12-19T10:42:53.387Z,4.80
2017-12-19T10:45:21.161Z,5.20
2017-12-19T10:47:48.081Z,5.10
2017-12-19T10:50:15.044Z,5.40
2017-12-19T10:52:42.784Z,5.50
2017-12-19T10:55:09.749Z,5.50
2017-12-19T10:57:37.529Z,5.60
2017-12-19T11:00:05.241Z,5.40
2017-12-19T11:02:32.210Z,5.40
2017-12-19T11:04:59.171Z,5.30
2017-12-19T11:07:27.020Z,5.20
2017-12-19T11:09:53.989Z,5.20
2017-12-19T11:12:21.721Z,5.20
2017-12-19T11:14:48.689Z,5.10
2017-12-19T11:17:16.423Z,5.00
2017-12-19T11:19:43.381Z,5.00
2017-12-19T11:22:10.439Z,4.90
2017-12-19T11:24:37.396Z,4.80
2017-12-19T11:27:05.134Z,4.90
2017-12-19T11:29:32.089Z,4.90
2017-12-19T11:31:59.822Z,4.90
2017-12-19T11:34:26.941Z,4.80
2017-12-19T11:36:53.910Z,4.70
2017-12-19T11:39:20.886Z,4.70
2017-12-19T11:41:47.845Z,4.70
2017-12-19T11:44:15.614Z,4.70
2017-12-19T11:46:42.553Z,4.70
2017-12-19T11:49:10.284Z,4.70
2017-12-19T11:51:37.245Z,4.70
2017-12-19T11:54:04.211Z,4.80
2017-12-19T11:56:31.945Z,4.90
2017-12-19T11:58:58.916Z,4.90
2017-12-19T12:01:26.650Z,5.10
2017-12-19T12:03:53.628Z,5.00
2017-12-19T12:06:20.581Z,5.10
2017-12-19T12:08:48.333Z,5.10
2017-12-19T12:11:15.276Z,5.00
2017-12-19T12:13:43.009Z,4.90
2017-12-19T12:16:09.977Z,4.90
2017-12-19T12:18:36.937Z,4.90
2017-12-19T12:21:04.669Z,4.90
2017-12-19T12:23:31.638Z,4.90
2017-12-19T12:25:58.597Z,4.90
2017-12-19T12:28:26.329Z,4.90
2017-12-19T12:30:53.293Z,4.90
2017-12-19T12:33:21.030Z,4.80
2017-12-19T12:35:47.996Z,4.80
2017-12-19T12:38:14.965Z,4.90
2017-12-19T12:40:42.699Z,4.90
2017-12-19T12:43:09.656Z,4.90
2017-12-19T12:45:37.421Z,4.80
2017-12-19T12:48:05.149Z,4.70
2017-12-19T12:50:32.109Z,4.70
2017-12-19T12:52:59.077Z,4.60
2017-12-19T12:55:26.817Z,4.60
2017-12-19T12:57:54.545Z,4.60
2017-12-19T13:00:21.506Z,4.60
2017-12-19T13:02:48.520Z,4.60
2017-12-19T13:05:15.483Z,4.60
2017-12-19T13:07:42.453Z,4.70
2017-12-19T13:10:09.409Z,4.70
2017-12-19T13:12:36.377Z,4.60
2017-12-19T13:15:04.126Z,4.60
2017-12-19T13:17:31.077Z,4.60
2017-12-19T13:19:58.091Z,4.70
2017-12-19T13:22:25.032Z,4.70
2017-12-19T13:24:51.997Z,4.80
2017-12-19T13:27:18.967Z,4.80
2017-12-19T13:29:48.805Z,4.80
2017-12-19T13:32:16.245Z,4.80
2017-12-19T13:34:43.983Z,4.70
2017-12-19T13:37:10.952Z,4.60
2017-12-19T13:39:38.680Z,4.60
2017-12-19T13:42:05.652Z,4.60
2017-12-19T13:44:33.388Z,4.40
2017-12-19T13:47:00.365Z,4.40
2017-12-19T13:49:28.109Z,4.20
2017-12-19T13:51:55.065Z,4.20
2017-12-19T13:54:22.032Z,4.10
2017-12-19T13:56:48.996Z,4.10
2017-12-19T13:59:15.961Z,4.20
2017-12-19T14:01:42.917Z,4.20
2017-12-19T14:04:09.888Z,4.10
2017-12-19T14:06:36.856Z,4.00
2017-12-19T14:09:04.593Z,3.80
2017-12-19T14:11:31.552Z,3.80
2017-12-19T14:13:59.293Z,3.60
2017-12-19T14:16:26.256Z,3.60
2017-12-19T14:18:53.237Z,3.60
2017-12-19T14:21:20.191Z,3.50
2017-12-19T14:23:47.161Z,3.60
2017-12-19T14:26:14.129Z,3.70
2017-12-19T14:28:41.084Z,3.80
2017-12-19T14:31:08.824Z,3.90
2017-12-19T14:33:35.850Z,3.90
2017-12-19T14:36:02.754Z,3.90
2017-12-19T14:38:30.493Z,4.00
2017-12-19T14:40:57.460Z,3.90
2017-12-19T14:43:25.228Z,4.00
2017-12-19T14:45:52.174Z,4.00
2017-12-19T14:48:19.899Z,4.00
2017-12-19T14:50:46.868Z,4.00
2017-12-19T14:53:13.832Z,3.90
2017-12-19T14:55:41.557Z,3.80
2017-12-19T14:58:08.523Z,3.80
2017-12-19T15:00:36.257Z,3.60
2017-12-19T15:03:03.232Z,3.60
2017-12-19T15:05:30.193Z,3.70
2017-12-19T15:07:57.922Z,3.50
2017-12-19T15:10:24.898Z,3.50
2017-12-19T15:12:52.630Z,3.40
2017-12-19T15:15:19.601Z,3.40
2017-12-19T15:17:47.320Z,3.60
2017-12-19T15:20:14.326Z,3.60
2017-12-19T15:22:41.341Z,3.70
2017-12-19T15:25:08.252Z,3.70
2017-12-19T15:27:35.268Z,3.70
2017-12-19T15:30:02.277Z,3.80
2017-12-19T15:32:29.205Z,3.80
2017-12-19T15:34:56.169Z,3.80
2017-12-19T15:37:23.141Z,3.80
2017-12-19T15:39:50.864Z,3.80
2017-12-19T15:42:17.838Z,3.80
2017-12-19T15:44:45.571Z,3.80
2017-12-19T15:47:12.541Z,3.80
2017-12-19T15:49:40.270Z,3.90
2017-12-19T15:52:07.237Z,3.90
2017-12-19T15:54:34.197Z,4.00
2017-12-19T15:57:01.929Z,3.80
2017-12-19T15:59:28.897Z,3.80
2017-12-19T16:01:56.629Z,3.80
2017-12-19T16:04:23.599Z,3.80
2017-12-19T16:06:50.643Z,3.90
2017-12-19T16:09:17.561Z,3.90
2017-12-19T16:11:44.530Z,3.80
2017-12-19T16:14:11.497Z,3.60
2017-12-19T16:16:39.234Z,3.70
2017-12-19T16:19:06.201Z,3.70
2017-12-19T16:21:33.946Z,3.80
2017-12-19T16:24:00.925Z,3.80
2017-12-19T16:26:28.657Z,3.80
2017-12-19T16:28:55.627Z,3.70
2017-12-19T16:31:23.353Z,4.00
2017-12-19T16:33:50.316Z,4.00
2017-12-19T16:36:17.276Z,4.00
2017-12-19T16:38:45.013Z,4.00
2017-12-19T16:41:12.620Z,4.00
2017-12-19T16:43:40.356Z,4.00
2017-12-19T16:46:07.316Z,3.90
2017-12-19T16:48:35.051Z,4.00
2017-12-19T16:51:02.171Z,4.00
2017-12-19T16:53:29.152Z,4.10
2017-12-19T16:55:56.113Z,4.00
2017-12-19T16:58:23.869Z,3.90
2017-12-19T17:00:51.988Z,3.90
2017-12-19T17:03:18.937Z,3.90
2017-12-19T17:05:45.932Z,3.80
2017-12-19T17:08:12.904Z,3.80
2017-12-19T17:10:40.637Z,3.80
2017-12-19T17:13:07.598Z,3.80
2017-12-19T17:15:35.333Z,3.60
2017-12-19T17:18:02.293Z,3.60
2017-12-19T17:20:29.261Z,3.60
2017-12-19T17:22:56.991Z,3.70
2017-12-19T17:25:23.966Z,3.70
2017-12-19T17:27:51.693Z,3.80
2017-12-19T17:30:18.664Z,3.80
2017-12-19T17:32:47.088Z,4.00
2017-12-19T17:35:14.048Z,3.90
2017-12-19T17:37:41.019Z,3.90
2017-12-19T17:40:07.985Z,3.90
2017-12-19T17:42:35.709Z,4.00
2017-12-19T17:45:02.708Z,3.90
2017-12-19T17:47:29.679Z,4.00
2017-12-19T17:49:56.644Z,4.00
2017-12-19T17:52:23.609Z,4.10
2017-12-19T17:54:50.620Z,4.10
2017-12-19T17:57:17.529Z,4.10
2017-12-19T17:59:45.269Z,4.10
2017-12-19T18:02:12.240Z,4.00
2017-12-19T18:04:39.970Z,4.00
2017-12-19T18:07:06.945Z,4.00
2017-12-19T18:09:34.681Z,4.10
2017-12-19T18:12:01.641Z,4.10
2017-12-19T18:14:29.377Z,4.20
2017-12-19T18:16:56.360Z,4.20
2017-12-19T18:19:24.089Z,4.20
2017-12-19T18:21:51.096Z,4.20
2017-12-19T18:24:18.060Z,4.30
2017-12-19T18:26:45.016Z,4.30
2017-12-19T18:29:11.989Z,4.30
2017-12-19T18:31:38.957Z,4.30
2017-12-19T18:34:06.696Z,4.20
2017-12-19T18:36:33.656Z,4.20
2017-12-19T18:39:01.394Z,4.20
2017-12-19T18:41:28.351Z,4.20
2017-12-19T18:43:55.317Z,4.30
2017-12-19T18:46:23.049Z,4.40
2017-12-19T18:48:50.021Z,4.40
2017-12-19T18:51:17.749Z,4.20
2017-12-19T18:53:44.721Z,4.20
2017-12-19T18:56:11.679Z,4.10
2017-12-19T18:58:39.416Z,4.10
2017-12-19T19:01:06.382Z,4.00
2017-12-19T19:03:34.116Z,3.90
2017-12-19T19:06:01.081Z,3.90
2017-12-19T19:08:28.104Z,3.90
2017-12-19T19:10:55.056Z,3.90
2017-12-19T19:13:22.013Z,3.90
2017-12-19T19:15:48.985Z,4.00
2017-12-19T19:18:16.713Z,4.10
2017-12-19T19:20:43.685Z,4.10
2017-12-19T19:23:11.421Z,4.20
2017-12-19T19:25:38.389Z,4.10
2017-12-19T19:28:06.119Z,4.20
2017-12-19T19:30:34.206Z,4.20
2017-12-19T19:33:01.145Z,4.20
2017-12-19T19:35:28.117Z,4.30
2017-12-19T19:37:55.853Z,4.30
2017-12-19T19:40:22.853Z,4.20
2017-12-19T19:42:49.813Z,4.20
2017-12-19T19:45:16.777Z,4.20
2017-12-19T19:47:44.521Z,4.30
2017-12-19T19:50:11.485Z,4.30
2017-12-19T19:52:38.453Z,4.40
2017-12-19T19:55:05.464Z,4.40
2017-12-19T19:57:33.157Z,4.30
2017-12-19T20:00:00.121Z,4.30
2017-12-19T20:02:27.865Z,4.40
2017-12-19T20:04:54.834Z,4.40
2017-12-19T20:07:22.565Z,4.20
2017-12-19T20:09:49.653Z,4.10
2017-12-19T20:12:17.400Z,4.00
2017-12-19T20:14:44.410Z,4.00
2017-12-19T20:17:11.351Z,4.00
2017-12-19T20:19:38.319Z,3.90
2017-12-19T20:22:06.188Z,3.90
2017-12-19T20:24:33.148Z,4.00
2017-12-19T20:27:00.173Z,4.10
2017-12-19T20:29:27.141Z,4.10
2017-12-19T20:31:54.100Z,4.10
2017-12-19T20:34:21.848Z,3.90
2017-12-19T20:36:48.806Z,3.90
2017-12-19T20:39:16.553Z,3.90
2017-12-19T20:41:43.509Z,3.80
2017-12-19T20:44:11.248Z,3.90
2017-12-19T20:46:38.206Z,3.90
2017-12-19T20:49:05.173Z,3.90
2017-12-19T20:51:32.901Z,4.00
2017-12-19T20:53:59.865Z,4.00
2017-12-19T20:56:26.826Z,4.00
2017-12-19T20:58:54.564Z,3.90
2017-12-19T21:01:21.526Z,3.90
2017-12-19T21:03:49.254Z,3.90
2017-12-19T21:06:16.222Z,4.00
2017-12-19T21:08:43.195Z,4.00
2017-12-19T21:11:10.925Z,4.10
2017-12-19T21:13:37.881Z,4.10
2017-12-19T21:16:04.849Z,4.00
2017-12-19T21:18:31.819Z,4.00
2017-12-19T21:20:58.809Z,4.00
2017-12-19T21:23:25.773Z,4.00
2017-12-19T21:25:53.513Z,3.90
2017-12-19T21:28:20.481Z,3.90
2017-12-19T21:30:48.210Z,3.80
2017-12-19T21:33:15.169Z,3.80
2017-12-19T21:35:42.160Z,3.90
2017-12-19T21:38:09.129Z,3.80
2017-12-19T21:40:36.102Z,3.80
2017-12-19T21:43:03.072Z,3.80
2017-12-19T21:45:30.800Z,3.80
2017-12-19T21:47:57.785Z,3.80
2017-12-19T21:50:25.516Z,3.70
2017-12-19T21:52:52.505Z,3.70
2017-12-19T21:55:20.226Z,3.70
2017-12-19T21:57:47.201Z,3.70
2017-12-19T22:00:14.942Z,3.60
2017-12-19T22:02:41.905Z,3.60
2017-12-19T22:05:09.636Z,3.70
2017-12-19T22:07:36.613Z,3.70
2017-12-19T22:10:03.576Z,3.80
2017-12-19T22:12:31.307Z,3.90
2017-12-19T22:14:58.265Z,3.90
2017-12-19T22:17:25.234Z,4.00
2017-12-19T22:19:52.193Z,4.00
2017-12-19T22:22:19.166Z,4.10
2017-12-19T22:24:46.893Z,3.90
2017-12-19T22:27:13.855Z,3.90
2017-12-19T22:29:40.816Z,3.90
2017-12-19T22:32:07.788Z,3.90
2017-12-19T22:34:34.751Z,3.80
2017-12-19T22:37:02.489Z,3.90
2017-12-19T22:39:29.448Z,3.90
2017-12-19T22:41:56.417Z,3.90
2017-12-19T22:44:24.149Z,3.80
2017-12-19T22:46:51.121Z,3.80
2017-12-19T22:49:18.857Z,3.70
2017-12-19T22:51:45.825Z,3.70
2017-12-19T22:54:13.553Z,3.80
2017-12-19T22:56:40.516Z,3.80
2017-12-19T22:59:07.524Z,3.90
2017-12-19T23:01:34.486Z,4.00
2017-12-19T23:04:01.454Z,4.00
2017-12-19T23:06:28.416Z,4.00
2017-12-19T23:08:56.154Z,4.00
2017-12-19T23:11:23.138Z,3.90
2017-12-19T23:13:50.080Z,4.00
2017-12-19T23:16:17.813Z,4.20
2017-12-19T23:18:44.774Z,4.20
2017-12-19T23:21:11.750Z,4.10
2017-12-19T23:23:38.718Z,4.10
2017-12-19T23:26:05.685Z,4.10
2017-12-19T23:28:32.649Z,4.20
2017-12-19T23:30:59.613Z,4.20
2017-12-19T23:33:27.346Z,4.10
2017-12-19T23:35:54.314Z,4.10
2017-12-19T23:38:22.040Z,4.00
2017-12-19T23:40:49.005Z,4.00
2017-12-19T23:43:15.966Z,3.90
2017-12-19T23:45:43.707Z,3.90
2017-12-19T23:48:10.673Z,3.80
2017-12-19T23:50:37.680Z,3.80
2017-12-19T23:53:04.649Z,3.80
2017-12-19T23:55:31.605Z,3.80
2017-12-19T23:57:59.349Z,3.90
